Time;durP1;ratioP1;P1;durP2;ratioP2;P2;SDS_P1;SDS_P2;PMS_P1;PMS_P2;Temp;Humidity;BMP_temperature;BMP_pressure;BME280_temperature;BME280_humidity;BME280_pressure;Samples;Min_cycle;Max_cycle;Signal;HPM_P1;HPM_P2
2024/01/05 00:00:46;;;;;;;6.93;1.97;;;10.80;99.90;;;;;;5080414;28;20299;-85
2024/01/05 00:03:12;;;;;;;5.83;1.73;;;10.80;99.90;;;;;;5080846;28;20529;-85
2024/01/05 00:05:39;;;;;;;9.33;2.10;;;10.80;99.90;;;;;;5082934;28;20191;-84
2024/01/05 00:08:05;;;;;;;6.87;2.17;;;10.80;99.90;;;;;;5077572;28;20168;-85
2024/01/05 00:10:31;;;;;;;5.80;1.90;;;10.80;99.90;;;;;;5072992;28;20164;-84
2024/01/05 00:12:57;;;;;;;8.83;2.30;;;10.70;99.90;;;;;;5072819;28;20169;-83
2024/01/05 00:15:22;;;;;;;5.13;1.90;;;10.80;99.90;;;;;;5074896;28;20203;-84
2024/01/05 00:17:48;;;;;;;6.20;2.10;;;10.80;99.90;;;;;;5074327;28;20229;-83
2024/01/05 00:20:14;;;;;;;8.67;2.00;;;10.70;99.90;;;;;;5074342;28;20199;-83
2024/01/05 00:22:40;;;;;;;5.53;1.80;;;10.80;99.90;;;;;;5075381;28;20178;-85
2024/01/05 00:25:07;;;;;;;7.77;2.23;;;10.80;99.90;;;;;;5074657;28;20191;-85
2024/01/05 00:27:32;;;;;;;5.43;2.03;;;10.80;99.90;;;;;;5075412;28;20176;-83
2024/01/05 00:29:58;;;;;;;6.57;1.93;;;10.80;99.90;;;;;;5075672;28;20168;-84
2024/01/05 00:32:24;;;;;;;5.23;2.13;;;10.80;99.90;;;;;;5074274;28;20173;-83
2024/01/05 00:34:49;;;;;;;6.77;1.90;;;10.80;99.90;;;;;;5074353;28;20178;-83
2024/01/05 00:37:15;;;;;;;7.70;1.60;;;10.80;99.90;;;;;;5074732;28;20171;-85
2024/01/05 00:39:41;;;;;;;6.83;1.60;;;10.90;99.90;;;;;;5075186;28;20707;-83
2024/01/05 00:42:07;;;;;;;6.80;1.97;;;10.90;99.90;;;;;;5073795;28;20252;-83
2024/01/05 00:44:33;;;;;;;6.77;1.90;;;10.90;99.90;;;;;;5074998;28;20259;-83
2024/01/05 00:46:58;;;;;;;5.83;2.40;;;10.90;99.90;;;;;;5074018;28;20168;-85
2024/01/05 00:49:24;;;;;;;6.87;3.27;;;10.90;99.90;;;;;;5072900;28;20584;-83
2024/01/05 00:51:49;;;;;;;8.03;2.20;;;10.90;99.90;;;;;;5074645;28;20172;-84
2024/01/05 00:54:15;;;;;;;7.40;2.40;;;10.90;99.90;;;;;;5074997;28;20172;-86
2024/01/05 00:56:41;;;;;;;7.47;2.10;;;10.80;99.90;;;;;;5074104;28;20278;-84
2024/01/05 00:59:06;;;;;;;9.03;2.40;;;10.90;99.90;;;;;;5075307;28;20220;-84
2024/01/05 01:01:32;;;;;;;6.57;2.00;;;10.90;99.90;;;;;;5073961;28;20214;-84
2024/01/05 01:03:58;;;;;;;4.57;1.70;;;10.90;99.90;;;;;;5072670;28;20181;-85
2024/01/05 01:06:24;;;;;;;8.00;1.90;;;10.90;99.90;;;;;;5073763;28;20641;-85
2024/01/05 01:08:50;;;;;;;6.83;2.03;;;10.90;99.90;;;;;;5073496;28;20585;-85
2024/01/05 01:11:17;;;;;;;5.73;1.83;;;10.90;99.90;;;;;;5073591;28;20191;-84
2024/01/05 01:13:44;;;;;;;8.67;2.00;;;10.90;99.90;;;;;;5074249;28;20172;-84
2024/01/05 01:16:11;;;;;;;6.47;1.70;;;10.90;98.60;;;;;;5073722;28;20176;-84
2024/01/05 01:18:38;;;;;;;7.00;2.03;;;10.90;98.30;;;;;;5073428;28;20195;-84
2024/01/05 01:21:04;;;;;;;6.97;2.00;;;10.90;97.50;;;;;;5073709;28;20673;-84
2024/01/05 01:23:30;;;;;;;9.10;1.80;;;10.90;96.70;;;;;;5073920;28;20234;-83
2024/01/05 01:25:56;;;;;;;7.60;1.67;;;10.90;95.40;;;;;;5075341;28;20598;-85
2024/01/05 01:28:21;;;;;;;7.40;2.00;;;10.90;94.60;;;;;;5073902;28;20236;-85
2024/01/05 01:30:47;;;;;;;6.50;1.73;;;10.90;93.20;;;;;;5090739;28;20181;-84
2024/01/05 01:33:13;;;;;;;8.33;2.27;;;11.00;91.30;;;;;;5074652;28;20717;-85
2024/01/05 01:35:38;;;;;;;6.57;1.77;;;11.00;91.70;;;;;;5072944;28;20624;-82
2024/01/05 01:38:04;;;;;;;5.57;1.50;;;11.00;90.50;;;;;;5075460;28;20505;-83
2024/01/05 01:40:30;;;;;;;6.63;1.87;;;11.00;90.20;;;;;;5072813;28;20203;-82
2024/01/05 01:42:55;;;;;;;6.57;2.10;;;11.00;90.40;;;;;;5074985;28;20645;-85
2024/01/05 01:45:21;;;;;;;7.47;1.60;;;10.90;90.50;;;;;;5073814;28;20553;-83
2024/01/05 01:47:49;;;;;;;5.97;1.80;;;10.90;89.50;;;;;;5073632;28;20176;-83
2024/01/05 01:50:15;;;;;;;5.77;1.80;;;10.90;87.80;;;;;;5074609;28;20577;-84
2024/01/05 01:52:45;;;;;;;6.53;1.97;;;11.00;85.70;;;;;;5094131;28;20171;-84
2024/01/05 01:55:13;;;;;;;6.83;1.90;;;11.00;81.70;;;;;;5094821;28;20250;-83
2024/01/05 01:57:40;;;;;;;6.50;1.40;;;11.00;81.40;;;;;;5092686;28;20183;-83
2024/01/05 02:00:07;;;;;;;4.67;1.60;;;11.00;81.20;;;;;;5094950;28;20167;-84
2024/01/05 02:02:34;;;;;;;5.20;1.53;;;11.00;82.60;;;;;;5094869;28;20210;-85
2024/01/05 02:05:00;;;;;;;4.00;1.57;;;11.00;83.10;;;;;;5093560;28;20518;-82
2024/01/05 02:07:26;;;;;;;4.97;1.77;;;11.00;82.10;;;;;;5093789;28;20184;-84
2024/01/05 02:09:51;;;;;;;4.37;1.97;;;11.00;81.00;;;;;;5094840;28;20252;-84
2024/01/05 02:12:17;;;;;;;6.90;1.90;;;11.00;81.90;;;;;;5093315;28;20176;-83
2024/01/05 02:14:43;;;;;;;6.70;2.17;;;11.00;82.60;;;;;;5092724;28;20194;-84
2024/01/05 02:17:29;;;;;;;4.70;1.50;;;11.00;82.00;;;;;;5093020;28;20895;-84
2024/01/05 02:19:56;;;;;;;6.47;1.43;;;11.00;79.10;;;;;;5093330;28;20172;-82
2024/01/05 02:22:22;;;;;;;6.57;1.70;;;11.00;78.10;;;;;;5092172;28;20230;-83
2024/01/05 02:24:49;;;;;;;4.70;1.93;;;11.00;77.50;;;;;;5093020;28;20248;-85
2024/01/05 02:27:15;;;;;;;4.53;1.83;;;11.00;76.60;;;;;;5093093;28;20175;-84
2024/01/05 02:29:40;;;;;;;4.23;1.70;;;11.00;75.10;;;;;;5092277;28;20168;-84
2024/01/05 02:32:07;;;;;;;4.80;1.43;;;11.00;74.50;;;;;;5093185;28;20236;-83
2024/01/05 02:34:33;;;;;;;6.10;1.97;;;10.90;73.30;;;;;;5094604;28;20621;-83
2024/01/05 02:36:58;;;;;;;10.00;2.03;;;11.00;73.90;;;;;;5091759;28;20198;-84
2024/01/05 02:39:24;;;;;;;4.03;1.60;;;11.00;73.20;;;;;;5094109;28;20655;-83
2024/01/05 02:41:50;;;;;;;6.57;1.77;;;11.00;71.30;;;;;;5093111;28;20272;-84
2024/01/05 02:44:15;;;;;;;4.57;1.60;;;11.00;69.60;;;;;;5093193;28;20273;-83
2024/01/05 02:46:41;;;;;;;6.73;1.87;;;11.00;70.30;;;;;;5092867;28;20177;-83
2024/01/05 02:49:07;;;;;;;7.00;1.50;;;11.00;71.70;;;;;;5092949;28;20262;-84
2024/01/05 02:51:32;;;;;;;6.47;1.70;;;11.00;70.90;;;;;;5091002;28;20538;-84
2024/01/05 02:53:58;;;;;;;5.13;1.50;;;11.00;70.30;;;;;;5092095;28;20635;-84
2024/01/05 02:56:24;;;;;;;5.13;1.37;;;10.90;69.50;;;;;;5092847;28;20707;-84
2024/01/05 02:58:54;;;;;;;4.60;1.90;;;10.90;65.70;;;;;;5091672;28;20205;-83
2024/01/05 03:01:19;;;;;;;4.97;1.60;;;11.00;62.20;;;;;;5092595;28;20217;-83
2024/01/05 03:03:49;;;;;;;6.73;1.67;;;10.90;63.70;;;;;;5092324;28;20552;-85
2024/01/05 03:06:21;;;;;;;5.80;1.47;;;10.90;61.40;;;;;;5091646;28;20175;-84
2024/01/05 03:08:46;;;;;;;7.57;1.60;;;10.90;61.00;;;;;;5093848;28;20246;-83
2024/01/05 03:11:12;;;;;;;8.67;1.70;;;10.90;57.70;;;;;;5092337;28;20175;-83
2024/01/05 03:13:38;;;;;;;6.30;1.60;;;10.90;57.30;;;;;;5091429;28;20266;-84
2024/01/05 03:16:04;;;;;;;4.10;1.13;;;11.00;56.30;;;;;;5092157;28;20529;-83
2024/01/05 03:18:30;;;;;;;3.10;1.50;;;11.00;50.90;;;;;;5091498;28;20175;-82
2024/01/05 03:20:56;;;;;;;4.33;1.23;;;10.90;43.90;;;;;;5091127;28;20292;-82
2024/01/05 03:23:22;;;;;;;4.40;1.17;;;10.90;38.40;;;;;;5092418;28;20175;-82
2024/01/05 03:25:48;;;;;;;2.93;0.90;;;10.90;36.30;;;;;;5091352;28;20191;-85
2024/01/05 03:28:14;;;;;;;2.83;1.00;;;11.00;33.90;;;;;;5091398;28;20168;-83
2024/01/05 03:30:41;;;;;;;3.43;1.17;;;10.90;35.30;;;;;;5092117;28;20167;-83
2024/01/05 03:33:07;;;;;;;5.47;1.80;;;10.80;36.90;;;;;;5091424;28;20180;-84
2024/01/05 03:35:33;;;;;;;4.33;1.20;;;10.80;38.30;;;;;;5090447;28;20190;-83
2024/01/05 03:37:59;;;;;;;5.53;1.40;;;10.70;41.20;;;;;;5091370;28;20180;-82
2024/01/05 03:40:24;;;;;;;4.83;1.57;;;10.70;44.30;;;;;;5091629;28;20172;-85
2024/01/05 03:42:50;;;;;;;2.40;1.00;;;10.70;50.40;;;;;;5091559;28;20275;-84
2024/01/05 03:45:16;;;;;;;2.53;1.10;;;10.70;51.70;;;;;;5093421;28;20168;-83
2024/01/05 03:47:41;;;;;;;2.83;0.80;;;10.60;40.80;;;;;;5090806;28;20178;-83
2024/01/05 03:50:08;;;;;;;1.70;0.60;;;10.60;28.20;;;;;;5091395;28;20195;-84
2024/01/05 03:52:34;;;;;;;4.43;1.03;;;10.60;19.00;;;;;;5070709;28;20586;-82
2024/01/05 03:55:01;;;;;;;3.53;0.80;;;10.60;18.70;;;;;;5070772;28;20502;-83
2024/01/05 03:57:27;;;;;;;1.47;0.70;;;10.70;18.60;;;;;;5071118;28;20183;-83
2024/01/05 03:59:53;;;;;;;3.20;0.70;;;10.60;16.80;;;;;;5070488;28;20501;-84
2024/01/05 04:02:19;;;;;;;1.07;0.70;;;10.60;14.10;;;;;;5071482;28;20755;-83
2024/01/05 04:04:45;;;;;;;3.07;0.73;;;10.60;12.70;;;;;;5073001;28;20202;-83
2024/01/05 04:07:11;;;;;;;2.23;0.70;;;10.60;13.80;;;;;;5072855;28;20255;-83
2024/01/05 04:09:38;;;;;;;4.13;0.90;;;10.50;17.00;;;;;;5070720;28;20237;-83
2024/01/05 04:12:04;;;;;;;1.90;0.70;;;10.50;19.90;;;;;;5070762;28;20242;-84
2024/01/05 04:14:29;;;;;;;1.70;0.80;;;10.50;12.10;;;;;;5069659;28;20647;-82
2024/01/05 04:16:55;;;;;;;1.50;0.70;;;10.50;1.00;;;;;;5071273;28;20176;-82
2024/01/05 04:19:22;;;;;;;2.33;0.73;;;10.40;1.00;;;;;;5070578;28;20226;-83
2024/01/05 04:21:48;;;;;;;1.53;0.60;;;10.30;1.00;;;;;;5070508;28;20315;-82
2024/01/05 04:24:13;;;;;;;1.77;0.70;;;10.30;1.00;;;;;;5071129;28;20223;-84
2024/01/05 04:26:39;;;;;;;2.97;0.80;;;10.30;1.00;;;;;;5070431;28;20187;-83
2024/01/05 04:29:05;;;;;;;2.83;0.70;;;10.30;1.00;;;;;;5070670;28;20168;-83
2024/01/05 04:31:31;;;;;;;1.43;0.60;;;10.30;1.00;;;;;;5070883;28;20532;-83
2024/01/05 04:33:56;;;;;;;4.10;0.77;;;10.20;1.00;;;;;;5069787;28;20636;-83
2024/01/05 04:36:22;;;;;;;2.50;0.40;;;10.20;1.00;;;;;;5070245;28;20310;-83
2024/01/05 04:38:48;;;;;;;1.30;0.40;;;10.10;1.00;;;;;;5071176;28;20179;-83
2024/01/05 04:41:15;;;;;;;0.90;0.70;;;10.00;1.00;;;;;;5070393;28;20196;-83
2024/01/05 04:43:41;;;;;;;1.50;0.50;;;9.90;1.00;;;;;;5072148;28;20168;-83
2024/01/05 04:46:08;;;;;;;1.80;0.57;;;9.90;1.00;;;;;;5070929;28;20168;-84
2024/01/05 04:48:34;;;;;;;2.63;0.50;;;9.80;1.00;;;;;;5070068;28;20176;-83
2024/01/05 04:51:02;;;;;;;2.10;0.77;;;9.70;1.00;;;;;;5079704;28;20176;-84
2024/01/05 04:53:28;;;;;;;2.10;0.60;;;9.60;1.00;;;;;;5091730;28;20821;-84
2024/01/05 04:55:54;;;;;;;2.90;0.67;;;9.50;1.00;;;;;;5090832;28;20199;-83
2024/01/05 04:58:19;;;;;;;1.83;0.53;;;9.50;1.00;;;;;;5091524;28;20263;-84
2024/01/05 05:00:45;;;;;;;0.97;0.50;;;9.50;1.00;;;;;;5094915;28;20195;-82
2024/01/05 05:03:13;;;;;;;1.00;0.60;;;9.50;1.00;;;;;;5096128;28;20175;-83
2024/01/05 05:05:39;;;;;;;0.60;0.50;;;9.40;2.60;;;;;;5093589;28;20627;-84
2024/01/05 05:08:05;;;;;;;0.50;0.40;;;9.30;5.80;;;;;;5093953;28;20175;-84
2024/01/05 05:10:31;;;;;;;0.80;0.60;;;9.30;8.30;;;;;;5093887;28;20177;-83
2024/01/05 05:12:56;;;;;;;1.50;0.40;;;9.20;15.40;;;;;;5094128;28;20220;-82
2024/01/05 05:15:22;;;;;;;0.73;0.50;;;9.20;19.20;;;;;;5095644;28;20183;-83
2024/01/05 05:17:48;;;;;;;1.17;0.50;;;9.20;21.20;;;;;;5093114;28;20175;-85
2024/01/05 05:20:13;;;;;;;1.40;0.60;;;9.20;21.90;;;;;;5092220;28;20178;-83
2024/01/05 05:22:39;;;;;;;0.47;0.40;;;9.10;23.40;;;;;;5093685;28;20574;-84
2024/01/05 05:25:05;;;;;;;1.53;0.60;;;9.20;19.60;;;;;;5093861;28;20195;-84
2024/01/05 05:27:31;;;;;;;0.60;0.43;;;9.10;23.90;;;;;;5094186;28;20198;-83
2024/01/05 05:29:57;;;;;;;2.97;0.70;;;9.10;23.50;;;;;;5094554;28;20620;-83
2024/01/05 05:32:23;;;;;;;2.40;1.37;;;9.00;24.30;;;;;;5094733;28;20167;-83
2024/01/05 05:34:50;;;;;;;1.70;0.60;;;9.00;25.10;;;;;;5095427;28;20684;-84
2024/01/05 05:37:16;;;;;;;1.47;0.60;;;9.00;29.60;;;;;;5093753;28;20175;-84
2024/01/05 05:39:42;;;;;;;2.10;0.67;;;9.00;37.30;;;;;;5093218;28;20175;-82
2024/01/05 05:42:07;;;;;;;1.03;0.50;;;8.90;41.90;;;;;;5094198;28;20237;-83
2024/01/05 05:44:33;;;;;;;1.77;0.60;;;8.90;46.00;;;;;;5094189;28;20267;-84
2024/01/05 05:46:59;;;;;;;1.90;0.50;;;8.90;50.00;;;;;;5094390;28;20163;-82
2024/01/05 05:49:24;;;;;;;1.23;0.70;;;8.80;54.60;;;;;;5093737;28;20594;-82
2024/01/05 05:51:50;;;;;;;2.17;0.60;;;8.80;60.90;;;;;;5078932;28;20268;-83
2024/01/05 05:54:16;;;;;;;3.07;1.47;;;8.70;62.00;;;;;;5073501;28;20168;-82
2024/01/05 05:56:42;;;;;;;1.70;0.83;;;8.70;62.80;;;;;;5073599;28;20184;-84
2024/01/05 05:59:08;;;;;;;1.53;0.70;;;8.60;62.60;;;;;;5073832;28;20329;-84
2024/01/05 06:01:33;;;;;;;1.33;0.60;;;8.70;63.90;;;;;;5078045;28;20212;-84
2024/01/05 06:03:59;;;;;;;1.73;0.60;;;8.60;65.50;;;;;;5074693;28;20168;-83
2024/01/05 06:06:24;;;;;;;1.67;0.70;;;8.50;66.10;;;;;;5073048;28;20514;-85
2024/01/05 06:08:54;;;;;;;2.10;0.70;;;8.50;68.00;;;;;;5073579;28;20263;-84
2024/01/05 06:11:20;;;;;;;0.90;0.50;;;8.70;59.10;;;;;;5071626;28;20657;-84
2024/01/05 06:13:46;;;;;;;0.53;0.40;;;8.60;57.50;;;;;;5072527;28;20173;-84
2024/01/05 06:16:13;;;;;;;1.17;0.50;;;8.60;58.90;;;;;;5072338;28;20171;-83
2024/01/05 06:18:39;;;;;;;2.33;0.50;;;8.50;70.10;;;;;;5072917;28;20230;-84
2024/01/05 06:21:05;;;;;;;2.27;0.70;;;8.50;77.30;;;;;;5071689;28;20200;-83
2024/01/05 06:23:32;;;;;;;2.47;0.73;;;8.40;88.20;;;;;;5073330;28;20213;-84
2024/01/05 06:25:58;;;;;;;1.73;0.70;;;8.40;92.60;;;;;;5072412;28;20230;-83
2024/01/05 06:28:23;;;;;;;1.93;0.60;;;8.40;96.10;;;;;;5071836;28;20192;-82
2024/01/05 06:30:49;;;;;;;1.57;0.60;;;8.30;98.00;;;;;;5072513;28;20654;-83
2024/01/05 06:33:15;;;;;;;2.20;0.60;;;8.30;99.70;;;;;;5071866;28;20173;-84
2024/01/05 06:35:41;;;;;;;1.57;0.90;;;8.30;99.90;;;;;;5072027;28;20628;-82
2024/01/05 06:38:07;;;;;;;3.20;0.83;;;8.20;97.80;;;;;;5072215;28;20191;-82
2024/01/05 06:40:32;;;;;;;2.50;0.70;;;8.20;93.30;;;;;;5071557;28;20279;-82
2024/01/05 06:42:58;;;;;;;2.93;0.80;;;8.20;90.70;;;;;;5072653;28;20760;-82
2024/01/05 06:45:24;;;;;;;1.90;0.80;;;8.20;73.90;;;;;;5072275;28;20523;-82
2024/01/05 06:47:50;;;;;;;2.03;0.80;;;8.30;65.90;;;;;;5072210;28;20183;-82
2024/01/05 06:50:16;;;;;;;2.60;0.93;;;8.30;62.00;;;;;;5072219;28;20169;-82
2024/01/05 06:52:42;;;;;;;3.03;0.80;;;8.30;66.10;;;;;;5072469;28;20167;-84
2024/01/05 06:55:08;;;;;;;2.20;1.33;;;8.20;79.50;;;;;;5073040;28;20172;-84
2024/01/05 06:57:35;;;;;;;2.63;0.90;;;8.20;92.60;;;;;;5080269;28;20287;-83
2024/01/05 07:00:09;;;;;;;3.87;1.30;;;8.10;98.00;;;;;;5079964;28;20245;-83
2024/01/05 07:02:36;;;;;;;2.60;0.87;;;8.00;99.90;;;;;;5074025;28;20503;-82
2024/01/05 07:05:03;;;;;;;3.23;1.10;;;8.10;99.90;;;;;;5072238;28;20613;-83
2024/01/05 07:07:29;;;;;;;2.73;1.00;;;8.00;99.90;;;;;;5070857;28;20202;-83
2024/01/05 07:09:54;;;;;;;2.93;1.30;;;7.90;99.90;;;;;;5071491;28;20176;-84
2024/01/05 07:12:20;;;;;;;1.93;0.87;;;7.90;99.90;;;;;;5071360;28;20698;-84
2024/01/05 07:14:49;;;;;;;1.87;0.67;;;7.90;99.90;;;;;;5071978;28;20605;-84
2024/01/05 07:17:15;;;;;;;2.07;0.90;;;7.80;99.90;;;;;;5071467;28;20582;-84
2024/01/05 07:19:40;;;;;;;2.50;0.90;;;7.70;97.50;;;;;;5072875;28;20689;-83
2024/01/05 07:22:07;;;;;;;2.27;0.80;;;7.70;97.60;;;;;;5071529;28;20588;-83
2024/01/05 07:24:37;;;;;;;0.60;0.47;;;7.70;91.10;;;;;;5082183;28;20306;-84
2024/01/05 07:27:03;;;;;;;3.70;0.67;;;7.70;80.40;;;;;;5091948;28;20163;-83
2024/01/05 07:29:29;;;;;;;1.97;0.60;;;7.70;76.40;;;;;;5091922;28;20182;-82
2024/01/05 07:31:55;;;;;;;2.17;0.60;;;7.70;77.50;;;;;;5093376;28;20176;-83
2024/01/05 07:34:20;;;;;;;1.70;0.80;;;7.70;78.80;;;;;;5091186;28;20571;-82
2024/01/05 07:36:46;;;;;;;1.30;0.80;;;7.70;81.10;;;;;;5091128;28;20187;-82
2024/01/05 07:39:13;;;;;;;1.10;0.93;;;7.70;81.80;;;;;;5092419;28;20178;-85
2024/01/05 07:41:39;;;;;;;1.30;0.77;;;7.70;85.80;;;;;;5092175;28;20206;-82
2024/01/05 07:44:05;;;;;;;2.20;1.00;;;7.60;90.60;;;;;;5091741;28;20206;-83
2024/01/05 07:46:31;;;;;;;2.03;1.00;;;7.50;92.00;;;;;;5092032;28;20167;-82
2024/01/05 07:48:58;;;;;;;2.10;0.93;;;7.50;91.70;;;;;;5092699;28;20167;-82
2024/01/05 07:51:24;;;;;;;1.87;0.73;;;7.40;91.60;;;;;;5092635;28;20199;-83
2024/01/05 07:53:50;;;;;;;2.10;0.90;;;7.40;91.40;;;;;;5091786;28;20264;-84
2024/01/05 07:56:17;;;;;;;1.77;0.80;;;7.40;92.70;;;;;;5091920;28;20548;-85
2024/01/05 07:58:46;;;;;;;3.40;0.80;;;7.40;92.80;;;;;;5090868;28;20262;-82
2024/01/05 08:01:16;;;;;;;2.77;0.90;;;7.50;90.50;;;;;;5091736;28;20201;-86
2024/01/05 08:03:44;;;;;;;2.57;1.00;;;7.40;87.00;;;;;;5090823;28;20175;-85
2024/01/05 08:06:19;;;;;;;2.93;0.90;;;7.50;90.30;;;;;;5091393;28;20167;-85
2024/01/05 08:08:50;;;;;;;3.03;0.90;;;7.60;88.30;;;;;;5091805;28;20209;-86
2024/01/05 08:11:16;;;;;;;3.30;1.00;;;7.60;87.60;;;;;;5091657;28;20175;-83
2024/01/05 08:13:42;;;;;;;2.93;0.80;;;7.60;90.50;;;;;;5090948;28;20167;-83
2024/01/05 08:16:09;;;;;;;2.60;1.10;;;7.60;86.60;;;;;;5093751;28;20175;-84
2024/01/05 08:18:39;;;;;;;3.47;1.30;;;7.60;83.40;;;;;;5095205;28;20168;-81
2024/01/05 08:21:05;;;;;;;3.87;1.23;;;7.70;85.10;;;;;;5091011;28;20203;-83
2024/01/05 08:23:32;;;;;;;3.57;1.20;;;7.80;83.40;;;;;;5091934;28;20489;-83
2024/01/05 08:25:58;;;;;;;3.03;1.20;;;7.80;87.50;;;;;;5091108;28;20194;-84
2024/01/05 08:28:24;;;;;;;5.37;1.20;;;7.90;86.70;;;;;;5091574;28;20511;-83
2024/01/05 08:30:50;;;;;;;4.47;1.30;;;7.80;82.80;;;;;;5092560;28;20545;-84
2024/01/05 08:33:16;;;;;;;2.70;1.07;;;7.80;82.70;;;;;;5089997;28;20168;-84
2024/01/05 08:35:42;;;;;;;4.93;1.40;;;7.80;91.40;;;;;;5095818;28;20171;-83
2024/01/05 08:38:08;;;;;;;3.13;1.47;;;7.80;95.20;;;;;;5094778;28;20313;-84
2024/01/05 08:40:33;;;;;;;4.13;1.70;;;7.80;97.00;;;;;;5095134;28;20172;-84
2024/01/05 08:42:59;;;;;;;1.47;1.20;;;7.80;97.00;;;;;;5095074;28;20182;-87
2024/01/05 08:45:27;;;;;;;5.37;2.10;;;7.80;98.60;;;;;;5094150;28;20241;-84
2024/01/05 08:47:53;;;;;;;3.63;1.40;;;7.80;97.30;;;;;;5096087;28;20207;-85
2024/01/05 08:50:19;;;;;;;1.87;1.00;;;7.80;96.40;;;;;;5094181;28;20172;-85
2024/01/05 08:52:45;;;;;;;2.60;1.20;;;7.80;89.90;;;;;;5075476;28;20263;-85
2024/01/05 08:55:15;;;;;;;3.07;1.40;;;7.80;79.70;;;;;;5075064;28;20187;-86
2024/01/05 08:57:41;;;;;;;3.63;1.73;;;7.80;82.10;;;;;;5075100;28;20708;-85
2024/01/05 09:00:10;;;;;;;4.37;1.60;;;7.80;86.90;;;;;;5079409;28;20267;-84
2024/01/05 09:02:36;;;;;;;2.67;1.40;;;7.70;91.10;;;;;;5089449;28;20208;-87
2024/01/05 09:05:05;;;;;;;10.23;1.77;;;7.80;91.60;;;;;;5094500;28;20168;-85
2024/01/05 09:07:32;;;;;;;3.77;1.70;;;7.80;91.00;;;;;;5094059;28;20183;-86
2024/01/05 09:09:57;;;;;;;5.13;1.77;;;7.80;92.50;;;;;;5080412;28;20177;-87
2024/01/05 09:12:24;;;;;;;3.40;1.73;;;7.80;93.80;;;;;;5075012;28;20187;-89
2024/01/05 09:14:50;;;;;;;3.03;1.93;;;7.80;95.20;;;;;;5068196;28;20180;-88
2024/01/05 09:17:16;;;;;;;6.37;2.10;;;7.80;95.80;;;;;;5080135;28;20175;-88
2024/01/05 09:19:42;;;;;;;4.83;1.90;;;7.70;96.30;;;;;;5090986;28;20172;-89
2024/01/05 09:22:08;;;;;;;7.80;2.20;;;7.80;96.70;;;;;;5092547;28;20726;-88
2024/01/05 09:24:34;;;;;;;5.13;2.00;;;7.80;96.50;;;;;;5091302;28;20730;-89
2024/01/05 09:27:02;;;;;;;4.73;1.80;;;7.90;96.60;;;;;;5091297;28;20187;-86
2024/01/05 09:29:29;;;;;;;6.60;2.47;;;7.90;95.80;;;;;;5092230;28;20262;-86
2024/01/05 09:31:55;;;;;;;4.43;1.77;;;7.80;97.50;;;;;;5091614;28;20175;-84
2024/01/05 09:34:23;;;;;;;5.63;1.93;;;7.80;97.80;;;;;;5091649;28;20290;-87
2024/01/05 09:36:50;;;;;;;7.77;2.20;;;7.80;97.30;;;;;;5090099;28;20202;-88
2024/01/05 09:39:17;;;;;;;6.67;2.40;;;7.80;97.40;;;;;;5090487;28;20172;-94
2024/01/05 09:41:46;;;;;;;4.27;1.90;;;7.90;99.90;;;;;;5090670;28;20203;-87
2024/01/05 09:44:12;;;;;;;4.77;1.87;;;7.90;99.90;;;;;;5090750;28;20180;-83
2024/01/05 09:46:42;;;;;;;6.37;2.70;;;7.90;99.90;;;;;;5091663;28;20215;-85
2024/01/05 09:49:08;;;;;;;8.07;2.43;;;7.90;99.90;;;;;;5091190;28;20213;-87
2024/01/05 09:51:35;;;;;;;7.37;2.10;;;8.00;99.90;;;;;;5091205;28;20241;-85
2024/01/05 09:54:01;;;;;;;6.23;1.87;;;7.90;99.90;;;;;;5090772;28;20176;-83
2024/01/05 09:56:27;;;;;;;4.93;2.37;;;7.90;99.90;;;;;;5094433;28;20187;-89
2024/01/05 09:58:54;;;;;;;8.27;2.50;;;7.90;99.90;;;;;;5096350;28;20187;-89
2024/01/05 10:01:28;;;;;;;7.67;2.30;;;7.90;99.90;;;;;;5097176;28;20195;-94
2024/01/05 10:04:01;;;;;;;5.63;2.00;;;8.00;99.90;;;;;;5100133;28;20271;-92
2024/01/05 10:06:28;;;;;;;7.93;2.07;;;8.00;99.90;;;;;;5093777;28;20297;-86
2024/01/05 10:09:01;;;;;;;8.67;2.07;;;8.00;99.90;;;;;;5093667;28;20183;-87
2024/01/05 10:11:41;;;;;;;6.63;2.23;;;8.00;99.00;;;;;;5075240;28;20171;-87
2024/01/05 10:14:11;;;;;;;5.93;2.33;;;8.00;97.00;;;;;;5091012;28;20183;-82
2024/01/05 10:16:37;;;;;;;7.77;2.40;;;8.00;97.60;;;;;;5091807;28;20206;-85
2024/01/05 10:19:13;;;;;;;6.47;1.83;;;8.10;97.20;;;;;;5096461;28;21109;-87
2024/01/05 10:21:44;;;;;;;4.67;1.70;;;8.10;93.80;;;;;;5096751;28;20301;-86
2024/01/05 10:24:22;;;;;;;6.07;2.17;;;8.10;92.90;;;;;;5090050;28;20288;-89
2024/01/05 10:27:09;;;;;;;5.50;1.80;;;8.10;90.80;;;;;;5091919;28;20182;-86
2024/01/05 10:29:42;;;;;;;4.50;1.60;;;8.00;90.60;;;;;;5095167;28;20175;-85
2024/01/05 10:32:15;;;;;;;6.50;2.30;;;8.00;94.90;;;;;;5092380;28;20180;-82
2024/01/05 10:34:49;;;;;;;7.07;2.30;;;8.00;96.50;;;;;;5094985;28;20180;-85
2024/01/05 10:37:15;;;;;;;6.17;2.53;;;8.00;97.20;;;;;;5095331;28;20266;-85
2024/01/05 10:39:58;;;;;;;4.33;2.33;;;8.00;97.60;;;;;;5094917;28;20278;-87
2024/01/05 10:42:26;;;;;;;6.13;1.90;;;8.00;95.70;;;;;;5091944;28;20288;-86
2024/01/05 10:44:54;;;;;;;6.67;2.10;;;8.10;93.10;;;;;;5091477;28;20604;-88
2024/01/05 10:47:25;;;;;;;6.33;2.23;;;8.00;91.90;;;;;;5090930;28;20175;-89
2024/01/05 10:49:52;;;;;;;4.77;2.30;;;7.90;93.20;;;;;;5092464;28;20266;-85
2024/01/05 10:52:19;;;;;;;5.97;1.80;;;8.00;92.30;;;;;;5103500;28;20178;-90
2024/01/05 10:54:47;;;;;;;7.07;2.00;;;8.00;92.30;;;;;;5114865;28;20250;-85
2024/01/05 10:57:14;;;;;;;5.40;2.00;;;8.00;93.20;;;;;;5111609;28;20182;-87
2024/01/05 10:59:47;;;;;;;7.33;2.40;;;8.00;88.00;;;;;;5114788;28;20176;-86
2024/01/05 11:02:23;;;;;;;8.83;2.17;;;7.90;92.30;;;;;;5096092;28;20286;-84
2024/01/05 11:05:13;;;;;;;5.53;2.13;;;8.00;93.10;;;;;;5094307;28;20199;-85
2024/01/05 11:07:42;;;;;;;6.67;2.43;;;7.80;92.70;;;;;;5082870;28;20187;-86
2024/01/05 11:10:24;;;;;;;7.57;2.40;;;8.00;91.50;;;;;;5092867;28;20592;-86
2024/01/05 11:12:50;;;;;;;8.50;2.33;;;7.90;90.60;;;;;;5092398;28;20171;-86
2024/01/05 11:15:51;;;;;;;5.20;2.40;;;8.00;91.10;;;;;;5094506;28;20643;-86
2024/01/05 11:18:22;;;;;;;6.07;2.33;;;8.00;81.50;;;;;;5015336;28;20169;-84
2024/01/05 11:21:20;;;;;;;4.30;2.10;;;8.00;75.60;;;;;;5078693;28;20183;-85
2024/01/05 11:23:47;;;;;;;6.00;2.20;;;8.10;61.60;;;;;;5093056;28;20217;-87
2024/01/05 11:26:34;;;;;;;4.57;2.50;;;8.20;55.10;;;;;;5075988;28;20672;-85
2024/01/05 11:29:01;;;;;;;4.77;2.27;;;8.10;44.60;;;;;;5096513;28;20167;-86
2024/01/05 11:31:45;;;;;;;4.93;2.60;;;8.10;37.80;;;;;;5096705;28;20171;-86
2024/01/05 11:34:32;;;;;;;5.30;2.33;;;8.20;41.20;;;;;;5094606;28;20171;-88
2024/01/05 11:36:58;;;;;;;5.20;2.70;;;8.20;40.30;;;;;;5096534;28;20184;-85
2024/01/05 11:39:47;;;;;;;7.27;2.67;;;8.30;35.00;;;;;;5082789;28;20218;-83
2024/01/05 11:42:25;;;;;;;6.50;2.97;;;8.30;32.80;;;;;;5075436;28;20302;-81
2024/01/05 11:44:59;;;;;;;5.50;2.83;;;8.40;32.10;;;;;;5073934;28;20502;-85
2024/01/05 11:47:46;;;;;;;7.83;2.80;;;8.30;28.60;;;;;;5073440;28;20205;-86
2024/01/05 11:50:32;;;;;;;8.13;3.07;;;8.30;33.20;;;;;;5075181;28;20181;-86
2024/01/05 11:53:13;;;;;;;7.47;2.90;;;8.40;29.80;;;;;;5075239;28;20172;-88
2024/01/05 11:55:59;;;;;;;4.53;2.90;;;8.40;32.00;;;;;;5074003;28;20255;-86
2024/01/05 11:58:36;;;;;;;7.33;4.07;;;8.40;28.70;;;;;;5073416;28;20168;-86
2024/01/05 12:01:09;;;;;;;6.43;4.10;;;8.30;28.90;;;;;;5071999;28;20655;-89
2024/01/05 12:03:38;;;;;;;5.43;3.13;;;8.30;33.90;;;;;;5072747;28;20176;-87
2024/01/05 12:06:11;;;;;;;5.73;3.27;;;8.40;25.80;;;;;;5072707;28;20152;-85
2024/01/05 12:08:38;;;;;;;6.20;3.33;;;8.30;25.80;;;;;;5071964;28;20184;-87
2024/01/05 12:11:05;;;;;;;6.47;3.23;;;8.40;26.00;;;;;;5075705;28;20663;-86
2024/01/05 12:13:33;;;;;;;4.10;2.87;;;8.40;24.80;;;;;;5074232;28;20169;-86
2024/01/05 12:16:06;;;;;;;9.53;3.50;;;8.40;20.40;;;;;;5074293;28;20191;-87
2024/01/05 12:18:33;;;;;;;5.17;2.83;;;8.50;17.60;;;;;;5076263;28;20223;-87
2024/01/05 12:21:01;;;;;;;6.93;3.30;;;8.50;19.10;;;;;;5076242;28;20214;-86
2024/01/05 12:23:32;;;;;;;5.43;3.03;;;8.50;20.30;;;;;;5076158;28;20184;-84
2024/01/05 12:25:59;;;;;;;5.23;2.63;;;8.50;19.00;;;;;;5075333;28;20286;-88
2024/01/05 12:28:27;;;;;;;5.27;2.73;;;8.50;18.70;;;;;;5074988;28;20222;-85
2024/01/05 12:30:54;;;;;;;3.63;2.43;;;8.50;18.10;;;;;;5075421;28;20176;-87
2024/01/05 12:33:20;;;;;;;4.33;2.87;;;8.50;17.70;;;;;;5075612;28;20230;-87
2024/01/05 12:35:48;;;;;;;6.17;2.77;;;8.50;16.70;;;;;;5075249;28;20172;-85
2024/01/05 12:38:27;;;;;;;6.40;2.70;;;8.50;16.80;;;;;;5075352;28;20180;-86
2024/01/05 12:41:04;;;;;;;4.60;2.87;;;8.50;17.60;;;;;;5075054;28;20290;-88
2024/01/05 12:43:30;;;;;;;5.27;3.13;;;8.50;17.30;;;;;;5076184;28;20283;-88
2024/01/05 12:45:55;;;;;;;6.47;2.70;;;8.50;19.40;;;;;;5076233;28;20207;-85
2024/01/05 12:48:26;;;;;;;5.47;2.80;;;8.50;19.30;;;;;;5075836;28;20660;-87
2024/01/05 12:51:03;;;;;;;5.97;2.80;;;8.50;21.20;;;;;;5075639;28;20168;-87
2024/01/05 12:53:29;;;;;;;5.27;2.60;;;8.50;18.30;;;;;;5075473;28;20168;-87
2024/01/05 12:55:54;;;;;;;8.37;3.40;;;8.50;16.90;;;;;;5075657;28;20211;-86